Time;durP1;ratioP1;P1;durP2;ratioP2;P2;SDS_P1;SDS_P2;PMS_P1;PMS_P2;Temp;Humidity;BMP_temperature;BMP_pressure;BME280_temperature;BME280_humidity;BME280_pressure;Samples;Min_cycle;Max_cycle;Signal;HPM_P1;HPM_P2
2023/05/24 00:01:06;;;;;;;9.77;2.13;;;;;;;13.45;68.46;100190.25;4826999;28;20049;-58
2023/05/24 00:03:38;;;;;;;10.48;2.42;;;;;;;13.73;66.97;100200.81;4834914;28;20096;-58
2023/05/24 00:06:09;;;;;;;10.35;2.95;;;;;;;13.84;66.24;100189.09;4833848;28;20088;-58
2023/05/24 00:08:40;;;;;;;8.15;2.03;;;;;;;13.98;64.82;100189.53;4833452;28;20555;-58
2023/05/24 00:11:14;;;;;;;12.18;2.13;;;;;;;14.10;65.52;100173.34;4833111;28;20075;-58
2023/05/24 00:13:46;;;;;;;8.70;1.92;;;;;;;14.20;64.61;100184.44;4827870;28;20086;-58
2023/05/24 00:16:18;;;;;;;9.00;1.98;;;;;;;14.40;65.28;100176.78;4833662;28;20053;-59
2023/05/24 00:18:48;;;;;;;6.80;2.10;;;;;;;14.55;63.71;100172.81;4834853;28;20112;-59
2023/05/24 00:21:19;;;;;;;10.18;1.70;;;;;;;14.70;62.82;100162.66;4835196;28;20058;-58
2023/05/24 00:23:52;;;;;;;10.38;2.00;;;;;;;14.76;62.13;100157.19;4832512;28;20046;-59
2023/05/24 00:26:28;;;;;;;7.33;2.10;;;;;;;14.66;62.00;100115.44;4823466;28;20054;-58
2023/05/24 00:28:59;;;;;;;7.90;1.70;;;;;;;15.09;60.47;100171.75;4834502;28;20388;-59
2023/05/24 00:31:30;;;;;;;8.90;1.43;;;;;;;15.23;59.51;100163.34;4838543;28;20400;-58
2023/05/24 00:34:00;;;;;;;7.35;1.67;;;;;;;15.28;58.12;100152.66;4835605;28;20724;-58
2023/05/24 00:36:31;;;;;;;4.87;1.30;;;;;;;15.44;57.35;100156.41;4834046;28;20097;-58
2023/05/24 00:39:03;;;;;;;8.90;1.70;;;;;;;15.53;58.13;100149.94;4833733;28;20352;-58
2023/05/24 00:41:35;;;;;;;5.50;1.10;;;;;;;15.83;56.25;100150.56;4832894;28;20267;-56
2023/05/24 00:44:09;;;;;;;5.10;1.70;;;;;;;15.91;56.17;100145.81;4832641;28;20647;-58
2023/05/24 00:46:43;;;;;;;4.07;1.30;;;;;;;16.02;54.75;100152.44;4831026;28;20285;-59
2023/05/24 00:49:15;;;;;;;6.17;1.30;;;;;;;16.14;55.01;100149.31;4826679;28;20312;-59
2023/05/24 00:51:49;;;;;;;5.50;1.37;;;;;;;16.20;52.61;100150.81;4832984;28;20348;-57
2023/05/24 00:54:19;;;;;;;5.03;1.57;;;;;;;15.90;52.41;100107.25;4833562;28;20285;-58
2023/05/24 00:56:52;;;;;;;4.60;1.60;;;;;;;16.20;54.01;100141.16;4836745;28;20319;-58
2023/05/24 00:59:22;;;;;;;6.73;1.43;;;;;;;16.33;52.26;100147.63;4833068;28;20285;-58
2023/05/24 01:01:54;;;;;;;5.17;1.33;;;;;;;16.16;52.10;100113.19;4832308;28;20309;-58
2023/05/24 01:04:24;;;;;;;5.33;1.50;;;;;;;16.38;52.52;100143.00;4827742;28;20279;-59
2023/05/24 01:07:11;;;;;;;3.53;1.40;;;;;;;16.51;51.12;100145.13;4834090;28;20291;-58
2023/05/24 01:09:57;;;;;;;4.27;1.33;;;;;;;16.51;50.14;100135.44;4823321;28;20300;-58
2023/05/24 01:12:50;;;;;;;10.27;1.67;;;;;;;16.45;50.20;100134.81;4821850;28;20416;-58
2023/05/24 01:15:25;;;;;;;5.73;1.40;;;;;;;16.51;50.72;100134.59;4824199;28;20313;-58
2023/05/24 01:20:42;;;;;;;12.57;1.70;;;;;;;16.54;48.84;100126.53;4855412;28;20276;-59
2023/05/24 01:23:29;;;;;;;4.83;1.40;;;;;;;16.53;47.36;100119.56;4858133;28;20646;-58
2023/05/24 01:26:08;;;;;;;;;;;;;;;16.66;46.95;100123.34;4847048;28;20296;-59
2023/05/24 01:28:43;;;;;;;8.60;1.73;;;;;;;16.53;47.21;100099.31;4847372;28;19936;-59
2023/05/24 01:31:15;;;;;;;6.33;1.23;;;;;;;16.75;48.28;100122.97;4856394;28;20282;-58
2023/05/24 01:33:46;;;;;;;7.37;1.67;;;;;;;16.89;47.17;100124.16;4844312;28;20275;-58
2023/05/24 01:36:16;;;;;;;5.97;1.63;;;;;;;16.93;46.28;100117.81;4857924;28;20285;-59
2023/05/24 01:38:48;;;;;;;4.50;1.50;;;;;;;16.87;47.38;100105.75;4856589;28;20285;-58
2023/05/24 01:41:27;;;;;;;10.20;2.20;;;;;;;16.99;47.16;100110.47;4859281;28;20751;-58
2023/05/24 01:44:11;;;;;;;11.00;1.87;;;;;;;17.10;47.33;100112.66;4845216;28;20297;-58
2023/05/24 01:46:42;;;;;;;12.20;1.90;;;;;;;17.07;47.13;100094.28;4846441;28;20300;-58
2023/05/24 01:49:27;;;;;;;8.33;1.40;;;;;;;17.13;46.65;100096.66;4857765;28;20296;-58
2023/05/24 01:52:03;;;;;;;7.07;1.57;;;;;;;17.14;47.78;100090.44;4829269;28;20371;-58
2023/05/24 01:54:39;;;;;;;9.87;2.27;;;;;;;17.47;47.79;100121.47;4852934;28;20287;-58
2023/05/24 01:57:11;;;;;;;9.27;1.83;;;;;;;17.56;47.38;100115.75;4856546;28;20848;-58
2023/05/24 01:59:45;;;;;;;10.43;2.23;;;;;;;17.55;46.46;100108.78;4857635;28;21006;-58
2023/05/24 02:02:16;;;;;;;8.03;1.60;;;;;;;17.51;47.40;100104.56;4848471;28;21316;-59
2023/05/24 02:04:49;;;;;;;5.23;1.50;;;;;;;17.63;47.63;100106.63;4855645;28;20401;-58
2023/05/24 02:07:20;;;;;;;10.30;1.70;;;;;;;17.73;47.87;100107.03;4857518;28;20825;-58
2023/05/24 02:09:51;;;;;;;9.10;1.93;;;;;;;17.67;47.10;100081.78;4857210;28;20298;-58
2023/05/24 02:12:21;;;;;;;13.00;1.73;;;;;;;17.71;46.52;100097.47;4858084;28;20288;-58
2023/05/24 02:14:54;;;;;;;7.27;1.60;;;;;;;17.59;46.31;100099.75;4855606;28;20342;-58
2023/05/24 02:17:25;;;;;;;4.90;1.53;;;;;;;17.52;45.97;100093.06;4852269;28;20294;-59
2023/05/24 02:19:56;;;;;;;7.67;1.67;;;;;;;17.63;45.66;100101.34;4856594;28;20397;-59
2023/05/24 02:22:27;;;;;;;27.17;2.50;;;;;;;17.56;45.17;100089.34;4856349;28;21210;-58
2023/05/24 02:25:02;;;;;;;9.60;1.50;;;;;;;17.80;46.84;100105.00;4856197;28;20355;-59
2023/05/24 02:27:45;;;;;;;7.00;1.50;;;;;;;17.66;45.06;100090.63;4848480;28;20420;-60
2023/05/24 02:30:24;;;;;;;8.70;1.53;;;;;;;17.61;44.97;100092.63;4846580;28;20305;-59
2023/05/24 02:32:54;;;;;;;7.67;1.33;;;;;;;17.63;44.41;100089.91;4851526;28;20366;-60
2023/05/24 02:35:25;;;;;;;7.17;1.53;;;;;;;17.72;45.87;100088.59;4857656;28;20287;-61
2023/05/24 02:38:00;;;;;;;9.87;1.77;;;;;;;17.47;45.33;100044.88;4856857;28;20311;-60
2023/05/24 02:40:34;;;;;;;17.53;1.67;;;;;;;17.74;45.53;100087.59;4856847;28;20832;-59
2023/05/24 02:43:09;;;;;;;7.03;1.23;;;;;;;17.72;45.50;100078.03;4845329;28;20675;-60
2023/05/24 02:45:49;;;;;;;10.27;1.23;;;;;;;17.75;45.50;100077.91;4839800;28;20375;-59
2023/05/24 02:48:28;;;;;;;8.65;1.60;;;;;;;17.79;45.66;100064.44;4845689;28;20311;-59
2023/05/24 02:51:05;;;;;;;;;;;;;;;17.89;44.02;100075.44;4844587;28;20050;-59
2023/05/24 02:53:45;;;;;;;9.23;1.23;;;;;;;17.32;44.53;99974.31;4846952;28;19937;-59
2023/05/24 02:56:17;;;;;;;39.17;3.33;;;;;;;17.91;44.73;100068.31;4847246;28;20288;-56
2023/05/24 02:58:48;;;;;;;14.73;1.93;;;;;;;17.90;45.01;100071.88;4855558;28;20295;-58
2023/05/24 03:01:20;;;;;;;5.37;1.40;;;;;;;17.90;44.48;100061.31;4855769;28;20387;-59
2023/05/24 03:03:56;;;;;;;14.83;1.83;;;;;;;17.90;45.14;100082.47;4856633;28;20342;-58
2023/05/24 03:06:28;;;;;;;11.80;1.60;;;;;;;17.93;44.41;100074.38;4847442;28;20784;-59
2023/05/24 03:08:59;;;;;;;13.23;1.70;;;;;;;17.93;43.49;100058.50;4857762;28;20363;-60
2023/05/24 03:11:38;;;;;;;10.90;1.50;;;;;;;17.94;43.91;100068.13;4860007;28;20289;-59
2023/05/24 03:14:10;;;;;;;13.83;1.80;;;;;;;17.98;43.41;100064.41;4850275;28;20281;-59
2023/05/24 03:16:42;;;;;;;34.50;10.53;;;;;;;17.89;43.01;100054.31;4859141;28;20316;-59
2023/05/24 03:19:13;;;;;;;16.40;3.13;;;;;;;17.96;44.54;100050.41;4860386;28;20303;-59
2023/05/24 03:21:46;;;;;;;17.10;2.90;;;;;;;18.01;44.11;100050.19;4849866;28;20268;-59
2023/05/24 03:24:21;;;;;;;19.17;6.80;;;;;;;17.89;42.95;100055.16;4859348;28;20316;-59
2023/05/24 03:26:57;;;;;;;9.80;4.20;;;;;;;18.01;45.09;100064.25;4858557;28;20306;-58
2023/05/24 03:29:28;;;;;;;22.00;10.27;;;;;;;18.24;45.50;100064.88;4835474;28;20363;-58
2023/05/24 03:32:06;;;;;;;16.83;7.53;;;;;;;18.28;44.04;100055.88;4859412;28;20309;-58
2023/05/24 03:34:37;;;;;;;16.90;6.97;;;;;;;18.11;42.06;100054.06;4847852;28;21059;-59
2023/05/24 03:37:08;;;;;;;23.90;7.30;;;;;;;17.91;43.18;100049.78;4860107;28;20395;-59
2023/05/24 03:39:39;;;;;;;14.03;5.23;;;;;;;17.89;43.17;100064.88;4859990;28;20280;-58
2023/05/24 03:42:10;;;;;;;17.63;5.73;;;;;;;17.83;43.15;100049.34;4859394;28;20295;-59
2023/05/24 03:44:41;;;;;;;7.20;2.60;;;;;;;17.73;43.47;100042.75;4858438;28;20288;-59
2023/05/24 03:47:13;;;;;;;22.17;4.80;;;;;;;17.82;45.70;100037.03;4858592;28;20311;-59
2023/05/24 03:49:52;;;;;;;7.13;2.17;;;;;;;17.85;44.62;100036.91;4858530;28;20337;-58
2023/05/24 03:52:23;;;;;;;;;;;;;;;17.86;44.37;100043.88;4858925;28;21046;-60
2023/05/24 03:54:59;;;;;;;5.17;1.80;;;;;;;17.81;44.11;100027.41;4849640;28;20028;-58
2023/05/24 03:57:31;;;;;;;10.67;1.97;;;;;;;17.78;45.40;100035.47;4858759;28;20426;-58
2023/05/24 04:00:04;;;;;;;9.80;1.70;;;;;;;17.83;46.01;100034.31;4859934;28;20381;-59
2023/05/24 04:02:37;;;;;;;36.93;4.03;;;;;;;17.84;45.79;100024.59;4852043;28;20279;-58
2023/05/24 04:05:10;;;;;;;11.60;1.90;;;;;;;17.87;46.22;100029.72;4857855;28;20370;-58
2023/05/24 04:07:41;;;;;;;10.07;1.60;;;;;;;17.86;44.64;100028.03;4860755;28;20292;-59
2023/05/24 04:10:11;;;;;;;13.23;1.60;;;;;;;17.74;44.48;100047.09;4858152;28;20299;-58
2023/05/24 04:12:42;;;;;;;6.70;1.27;;;;;;;17.64;44.45;100034.34;4859348;28;20416;-59
2023/05/24 04:15:14;;;;;;;8.53;1.10;;;;;;;17.58;44.98;100026.72;4859521;28;20303;-59
2023/05/24 04:17:46;;;;;;;10.80;1.30;;;;;;;17.50;45.02;100034.19;4852830;28;20746;-58
2023/05/24 04:20:17;;;;;;;8.67;1.40;;;;;;;17.48;45.31;100022.84;4857455;28;20279;-58
2023/05/24 04:22:48;;;;;;;10.47;1.70;;;;;;;17.55;46.39;100023.41;4859363;28;20407;-59
2023/05/24 04:25:19;;;;;;;24.90;2.27;;;;;;;17.66;45.94;100018.41;4859981;28;20384;-58
2023/05/24 04:27:50;;;;;;;16.57;2.67;;;;;;;17.75;45.69;100014.47;4858741;28;20410;-59
2023/05/24 04:30:21;;;;;;;7.13;1.30;;;;;;;17.70;44.13;100027.91;4858367;28;20296;-58
2023/05/24 04:32:57;;;;;;;7.50;1.50;;;;;;;17.51;44.95;100035.88;4841754;28;20291;-58
2023/05/24 04:35:27;;;;;;;12.57;1.40;;;;;;;17.40;45.14;100020.56;4848630;28;20626;-57
2023/05/24 04:37:58;;;;;;;10.87;1.40;;;;;;;17.39;45.65;100023.25;4857880;28;20351;-58
2023/05/24 04:40:29;;;;;;;19.63;1.43;;;;;;;17.39;46.66;100017.97;4856840;28;20296;-59
2023/05/24 04:43:01;;;;;;;13.80;1.50;;;;;;;17.34;45.13;100020.00;4857902;28;20284;-59
2023/05/24 04:45:32;;;;;;;6.17;1.13;;;;;;;17.25;45.95;100022.16;4858664;28;20280;-58
2023/05/24 04:48:05;;;;;;;5.93;1.17;;;;;;;17.23;45.41;100017.88;4859199;28;20292;-57
2023/05/24 04:50:38;;;;;;;8.10;1.20;;;;;;;17.12;46.02;100021.00;4849562;28;20285;-57
2023/05/24 04:53:09;;;;;;;10.27;1.33;;;;;;;17.11;46.91;100003.47;4859323;28;20285;-58
2023/05/24 04:55:46;;;;;;;8.63;2.00;;;;;;;17.15;45.45;100018.25;4858000;28;20296;-58
2023/05/24 04:58:17;;;;;;;6.20;1.47;;;;;;;16.99;45.68;100006.69;4846932;28;20396;-59
2023/05/24 05:00:48;;;;;;;8.50;1.23;;;;;;;17.09;46.34;100013.22;4857940;28;20269;-59
2023/05/24 05:03:20;;;;;;;10.50;1.63;;;;;;;17.22;46.12;100005.59;4858886;28;20312;-58
2023/05/24 05:05:51;;;;;;;12.10;1.83;;;;;;;17.01;45.93;99996.91;4840908;28;20307;-58
2023/05/24 05:08:21;;;;;;;10.33;1.20;;;;;;;17.04;47.12;100004.69;4856166;28;20308;-59
2023/05/24 05:10:52;;;;;;;4.63;1.63;;;;;;;17.09;45.93;100005.31;4857793;28;20297;-60
2023/05/24 05:13:23;;;;;;;8.30;1.53;;;;;;;17.01;45.53;100007.47;4858000;28;20281;-60
2023/05/24 05:15:53;;;;;;;8.50;1.37;;;;;;;16.80;43.92;99998.78;4857645;28;20311;-60
2023/05/24 05:18:29;;;;;;;11.23;1.80;;;;;;;16.65;44.99;100002.94;4846235;28;21666;-59
2023/05/24 05:21:00;;;;;;;8.97;1.50;;;;;;;16.63;44.83;99996.88;4856523;28;20379;-60
2023/05/24 05:23:31;;;;;;;10.53;1.50;;;;;;;16.56;43.17;100006.00;4858046;28;20785;-59
2023/05/24 05:26:01;;;;;;;26.40;2.63;;;;;;;16.44;43.93;99996.00;4858733;28;20736;-60
2023/05/24 05:28:35;;;;;;;11.27;1.40;;;;;;;16.39;44.10;99989.13;4848838;28;20313;-59
2023/05/24 05:31:06;;;;;;;20.67;2.03;;;;;;;16.37;44.58;99995.41;4858131;28;20296;-59
2023/05/24 05:33:40;;;;;;;4.53;0.90;;;;;;;16.43;43.48;99989.03;4857933;28;20346;-59
2023/05/24 05:36:10;;;;;;;6.20;1.60;;;;;;;16.41;44.23;99988.22;4855843;28;20281;-59
2023/05/24 05:38:41;;;;;;;7.27;1.63;;;;;;;16.39;44.92;99994.41;4856150;28;20312;-60
2023/05/24 05:41:12;;;;;;;6.77;1.00;;;;;;;16.26;44.32;99980.06;4858136;28;20351;-59
2023/05/24 05:43:43;;;;;;;7.60;1.10;;;;;;;16.37;44.64;99991.00;4857805;28;20297;-58
2023/05/24 05:46:14;;;;;;;6.93;1.60;;;;;;;16.36;44.68;100014.81;4853491;28;20309;-59
2023/05/24 05:48:47;;;;;;;10.23;1.47;;;;;;;16.03;44.91;99932.81;4857651;28;20299;-58
2023/05/24 05:51:18;;;;;;;8.40;1.50;;;;;;;16.35;44.09;99998.13;4858581;28;20281;-59
2023/05/24 05:53:50;;;;;;;15.00;1.57;;;;;;;16.31;44.26;100011.50;4868424;28;20335;-60
2023/05/24 05:56:24;;;;;;;12.53;1.40;;;;;;;16.32;43.83;100019.34;4846028;28;21056;-58
2023/05/24 05:58:57;;;;;;;9.03;1.33;;;;;;;16.32;44.51;100011.41;4852807;28;20732;-59
2023/05/24 06:01:28;;;;;;;5.60;1.23;;;;;;;16.41;43.95;100017.22;4858166;28;20296;-60
2023/05/24 06:04:03;;;;;;;11.00;1.47;;;;;;;16.38;44.65;99992.72;4856706;28;20331;-59
2023/05/24 06:06:35;;;;;;;6.33;1.20;;;;;;;16.45;43.59;100008.25;4849716;28;20282;-60
2023/05/24 06:09:06;;;;;;;10.17;1.60;;;;;;;16.37;43.09;99996.28;4856839;28;20288;-61
2023/05/24 06:11:37;;;;;;;12.80;1.50;;;;;;;16.42;43.89;100008.38;4855779;28;20345;-59
2023/05/24 06:14:07;;;;;;;12.83;1.33;;;;;;;16.33;43.21;100009.66;4854755;28;20363;-60
2023/05/24 06:16:40;;;;;;;9.83;1.50;;;;;;;16.20;43.28;100022.53;4855720;28;20766;-59
2023/05/24 06:19:15;;;;;;;13.00;1.30;;;;;;;16.23;44.14;100019.75;4857924;28;20312;-60
2023/05/24 06:21:48;;;;;;;4.33;1.57;;;;;;;16.23;43.04;100019.75;4846890;28;20728;-60
2023/05/24 06:24:21;;;;;;;9.67;1.53;;;;;;;16.23;42.89;100025.03;4857357;28;20359;-59
2023/05/24 06:26:59;;;;;;;10.97;1.20;;;;;;;16.26;42.75;100022.25;4844752;28;21628;-59
2023/05/24 06:29:33;;;;;;;6.87;1.40;;;;;;;16.23;42.54;100019.75;4856622;28;20288;-60
2023/05/24 06:32:03;;;;;;;10.63;1.70;;;;;;;16.18;43.13;100016.47;4855042;28;20366;-58
2023/05/24 06:34:52;;;;;;;20.33;1.53;;;;;;;16.21;43.00;100016.31;4853327;28;20842;-59
2023/05/24 06:37:34;;;;;;;4.18;1.00;;;;;;;16.06;43.00;100011.72;4864110;28;20289;-58
2023/05/24 06:40:07;;;;;;;13.97;1.10;;;;;;;16.09;43.19;100022.13;4848421;28;20666;-59
2023/05/24 06:42:41;;;;;;;7.73;1.33;;;;;;;16.06;40.55;100011.72;4855889;28;20284;-58
2023/05/24 06:45:15;;;;;;;4.80;1.37;;;;;;;16.01;42.84;100018.97;4855054;28;21006;-59
2023/05/24 06:47:50;;;;;;;10.83;1.20;;;;;;;15.94;43.68;100019.22;4845506;28;20610;-59
2023/05/24 06:50:46;;;;;;;10.63;1.60;;;;;;;16.10;44.84;100014.16;4856237;28;20750;-59
2023/05/24 06:53:26;;;;;;;5.57;1.50;;;;;;;16.04;43.80;99995.13;4846518;28;20285;-60
2023/05/24 06:56:28;;;;;;;;;;;;;;;16.18;44.43;100021.75;4846006;28;20049;-59
2023/05/24 06:59:10;;;;;;;7.93;1.77;;;;;;;16.10;44.68;100018.56;4854841;28;19950;-58
2023/05/24 07:01:41;;;;;;;6.03;1.03;;;;;;;16.15;45.17;100029.78;4855881;28;20284;-60
2023/05/24 07:04:12;;;;;;;4.80;1.50;;;;;;;16.17;45.28;100030.56;4855167;28;20331;-59
2023/05/24 07:06:45;;;;;;;9.10;1.43;;;;;;;16.29;45.27;100030.03;4856826;28;20309;-59
2023/05/24 07:09:18;;;;;;;7.33;1.00;;;;;;;16.34;45.12;100038.59;4846693;28;20281;-59
2023/05/24 07:11:51;;;;;;;16.37;1.53;;;;;;;16.33;45.94;100036.88;4855706;28;20402;-58
2023/05/24 07:14:26;;;;;;;11.23;1.50;;;;;;;16.27;45.77;100016.03;4854272;28;20758;-59
2023/05/24 07:16:58;;;;;;;4.33;1.10;;;;;;;16.24;45.48;100026.72;4846448;28;20288;-59
2023/05/24 07:19:29;;;;;;;7.23;1.10;;;;;;;16.06;44.84;100022.25;4856020;28;20348;-59
2023/05/24 07:22:02;;;;;;;5.37;1.07;;;;;;;15.80;44.91;100018.97;4855163;28;20392;-60
2023/05/24 07:24:32;;;;;;;15.03;1.77;;;;;;;15.57;45.65;99988.25;4855150;28;20319;-59
2023/05/24 07:27:06;;;;;;;5.00;1.20;;;;;;;15.69;46.20;100018.50;4856874;28;20366;-58
2023/05/24 07:29:44;;;;;;;7.03;1.27;;;;;;;15.72;46.71;100023.66;4845269;28;20363;-59
2023/05/24 07:32:22;;;;;;;7.33;1.20;;;;;;;15.72;46.49;100015.75;4845022;28;20297;-59
2023/05/24 07:34:56;;;;;;;17.88;1.77;;;;;;;15.62;46.87;100011.78;4842924;28;20389;-59
2023/05/24 07:37:28;;;;;;;10.27;1.90;;;;;;;15.61;46.97;100023.25;4856238;28;20149;-59
2023/05/24 07:39:58;;;;;;;5.13;1.00;;;;;;;15.57;46.75;100019.00;4854958;28;20296;-59
2023/05/24 07:42:38;;;;;;;19.47;2.53;;;;;;;15.47;47.21;100027.25;4855496;28;20677;-59
2023/05/24 07:45:13;;;;;;;4.77;1.27;;;;;;;15.38;47.12;100027.66;4846404;28;20291;-59
2023/05/24 07:47:44;;;;;;;6.57;1.30;;;;;;;15.50;47.28;100029.81;4853088;28;20434;-59
2023/05/24 07:50:22;;;;;;;5.83;1.30;;;;;;;15.60;47.22;100034.66;4857990;28;20290;-59
2023/05/24 07:53:04;;;;;;;13.70;2.10;;;;;;;15.58;47.90;100026.84;4854368;28;20327;-59
2023/05/24 07:55:47;;;;;;;5.20;1.20;;;;;;;15.53;47.73;100029.66;4840813;28;20278;-59
2023/05/24 07:58:40;;;;;;;6.63;1.20;;;;;;;15.54;47.44;100031.38;4848503;28;25896;-60
2023/05/24 08:01:17;;;;;;;9.90;1.30;;;;;;;15.46;48.14;100033.47;4857490;28;20068;-58
2023/05/24 08:03:48;;;;;;;5.37;1.37;;;;;;;15.46;48.63;100032.63;4849483;28;20041;-59
2023/05/24 08:06:24;;;;;;;6.50;1.10;;;;;;;15.35;47.48;100035.69;4859137;28;20284;-59
2023/05/24 08:08:56;;;;;;;5.03;1.30;;;;;;;15.12;47.63;100022.56;4853978;28;20296;-58
2023/05/24 08:11:33;;;;;;;9.30;1.20;;;;;;;14.99;48.00;100017.75;4858646;28;20285;-60
2023/05/24 08:14:10;;;;;;;7.73;1.20;;;;;;;15.01;48.15;100030.88;4854423;28;20390;-58
2023/05/24 08:16:50;;;;;;;9.47;1.40;;;;;;;14.93;48.58;100033.78;4850490;28;20421;-59
2023/05/24 08:19:24;;;;;;;7.40;1.43;;;;;;;14.88;48.67;100046.28;4856969;28;20291;-57
2023/05/24 08:22:03;;;;;;;9.60;1.63;;;;;;;14.85;49.22;100051.63;4856150;28;20591;-58
2023/05/24 08:24:35;;;;;;;11.80;1.50;;;;;;;14.87;49.63;100055.06;4857748;28;20978;-58
2023/05/24 08:27:07;;;;;;;5.37;1.30;;;;;;;14.90;49.73;100049.66;4858336;28;20524;-58
2023/05/24 08:29:38;;;;;;;9.83;1.50;;;;;;;14.77;49.84;100061.56;4857908;28;20304;-58
2023/05/24 08:32:09;;;;;;;8.07;1.67;;;;;;;14.67;50.28;100059.28;4859540;28;20289;-58
2023/05/24 08:34:45;;;;;;;7.93;1.60;;;;;;;14.75;50.81;100071.28;4858203;28;20293;-58
2023/05/24 08:37:19;;;;;;;13.50;1.90;;;;;;;14.85;51.03;100072.66;4847884;28;20687;-59
2023/05/24 08:39:51;;;;;;;8.00;1.60;;;;;;;14.76;49.85;100062.50;4858183;28;20277;-58
2023/05/24 08:42:24;;;;;;;15.77;4.37;;;;;;;14.61;50.15;100066.53;4860081;28;21050;-58
2023/05/24 08:45:03;;;;;;;11.97;5.33;;;;;;;14.49;50.48;100069.59;4851354;28;20282;-59
2023/05/24 08:47:37;;;;;;;17.50;4.90;;;;;;;14.28;50.78;100068.53;4857055;28;20282;-59
2023/05/24 08:50:10;;;;;;;14.83;4.63;;;;;;;14.37;51.03;100076.97;4858497;28;20145;-58
2023/05/24 08:52:42;;;;;;;7.87;2.20;;;;;;;14.21;51.55;100050.38;4858426;28;20320;-58
2023/05/24 08:55:30;;;;;;;8.17;2.67;;;;;;;14.24;50.84;100073.91;4857079;28;20303;-58
2023/05/24 08:58:05;;;;;;;8.63;1.85;;;;;;;14.14;50.77;100080.41;4853357;28;20328;-59
2023/05/24 09:00:41;;;;;;;6.97;1.50;;;;;;;14.00;51.67;100093.13;4850132;28;20061;-58
2023/05/24 09:21:02;;;;;;;15.37;2.30;;;;;;;13.72;52.39;100107.16;4864852;28;20180;-58
2023/05/24 09:23:33;;;;;;;18.70;2.63;;;;;;;13.66;52.66;100117.88;4871121;28;20284;-59
2023/05/24 09:26:10;;;;;;;4.88;2.00;;;;;;;13.52;52.53;100126.16;4865941;28;20045;-58
2023/05/24 09:28:40;;;;;;;6.35;1.42;;;;;;;13.23;52.92;100113.91;4867692;28;20153;-58
2023/05/24 09:31:12;;;;;;;8.38;2.08;;;;;;;13.15;53.35;100123.75;4875940;28;20332;-58
2023/05/24 09:33:43;;;;;;;3.30;1.60;;;;;;;12.97;53.86;100143.50;4878182;28;20056;-58
2023/05/24 09:36:20;;;;;;;10.63;2.20;;;;;;;12.81;54.14;100123.88;4873025;28;20285;-57
2023/05/24 09:39:03;;;;;;;4.60;1.30;;;;;;;12.51;54.55;100127.28;4902903;28;20056;-58
2023/05/24 09:41:37;;;;;;;6.55;1.65;;;;;;;12.34;55.36;100144.34;4870183;28;20069;-58
2023/05/24 09:44:18;;;;;;;7.13;1.88;;;;;;;11.91;55.86;100117.44;4878194;28;20160;-58
2023/05/24 09:46:49;;;;;;;7.32;1.73;;;;;;;11.88;56.56;100156.78;4869726;28;20053;-58
2023/05/24 09:49:22;;;;;;;2.50;1.42;;;;;;;11.58;57.07;100147.84;4865928;28;20060;-58
2023/05/24 09:51:55;;;;;;;6.93;1.80;;;;;;;11.39;57.71;100158.72;4863818;28;20058;-58
2023/05/24 09:54:26;;;;;;;10.13;2.60;;;;;;;11.09;58.82;100144.53;4872972;28;20049;-58
2023/05/24 09:56:57;;;;;;;11.23;2.42;;;;;;;10.80;59.52;100138.09;4879217;28;20485;-57
2023/05/24 09:59:32;;;;;;;9.32;3.55;;;;;;;10.68;60.19;100143.56;4854735;28;20046;-58
2023/05/24 10:02:12;;;;;;;11.95;4.15;;;;;;;10.51;60.86;100143.03;4874369;28;20100;-58
2023/05/24 10:04:46;;;;;;;15.88;4.72;;;;;;;10.41;61.50;100149.28;4865458;28;20062;-57
2023/05/24 10:07:19;;;;;;;16.80;5.00;;;;;;;10.30;61.90;100147.72;4869114;28;20054;-58
2023/05/24 10:09:50;;;;;;;14.90;3.58;;;;;;;10.17;62.59;100145.34;4864824;28;20057;-57
2023/05/24 10:12:25;;;;;;;6.28;2.50;;;;;;;9.93;62.93;100148.31;4871503;28;20058;-58
2023/05/24 10:14:57;;;;;;;10.88;3.25;;;;;;;9.84;63.49;100152.81;4872378;28;20062;-57
2023/05/24 10:17:29;;;;;;;7.72;2.90;;;;;;;9.73;64.10;100145.13;4878190;28;20052;-58
2023/05/24 10:20:00;;;;;;;12.80;2.92;;;;;;;9.61;64.83;100140.09;4874746;28;20638;-58
2023/05/24 10:22:41;;;;;;;11.05;3.15;;;;;;;9.50;65.12;100133.28;4864656;28;20057;-57
2023/05/24 10:25:21;;;;;;;8.68;2.00;;;;;;;9.35;65.38;100123.06;4853493;28;20045;-57
2023/05/24 10:27:55;;;;;;;6.28;2.08;;;;;;;9.46;65.82;100142.06;4864532;28;20077;-57
2023/05/24 10:30:34;;;;;;;9.73;2.88;;;;;;;9.38;65.96;100154.31;4860215;28;20502;-57
2023/05/24 10:33:09;;;;;;;5.47;2.30;;;;;;;9.31;66.55;100152.69;4859636;28;22183;-57
2023/05/24 10:35:41;;;;;;;9.77;2.58;;;;;;;9.19;66.81;100160.66;4863801;28;20045;-58
2023/05/24 10:38:14;;;;;;;7.45;2.67;;;;;;;9.18;67.23;100174.56;4863491;28;20894;-57
2023/05/24 10:40:45;;;;;;;10.95;3.20;;;;;;;9.15;67.70;100178.06;4864027;28;20081;-57
2023/05/24 10:43:18;;;;;;;8.73;3.63;;;;;;;9.07;68.21;100170.34;4867330;28;20050;-56
2023/05/24 10:45:55;;;;;;;10.23;2.75;;;;;;;9.09;68.42;100172.09;4854952;28;20141;-57
2023/05/24 10:48:39;;;;;;;15.32;2.38;;;;;;;9.07;68.48;100170.34;4853278;28;21629;-57
2023/05/24 10:51:41;;;;;;;7.97;3.38;;;;;;;9.03;68.69;100171.25;4848234;28;20125;-57
2023/05/24 10:54:18;;;;;;;14.43;2.60;;;;;;;8.88;68.70;100158.41;4847544;28;20164;-57
2023/05/24 10:56:51;;;;;;;10.07;3.35;;;;;;;8.92;69.36;100175.72;4848304;28;20054;-57
2023/05/24 10:59:38;;;;;;;8.65;3.10;;;;;;;8.78;69.73;100157.63;4855467;28;20077;-54
2023/05/24 11:02:14;;;;;;;12.35;3.45;;;;;;;8.83;69.76;100188.84;4843564;28;20054;-58
2023/05/24 11:05:01;;;;;;;10.65;3.13;;;;;;;8.81;70.39;100193.22;4845556;28;20073;-57
2023/05/24 11:08:10;;;;;;;11.88;4.30;;;;;;;8.77;70.46;100196.75;4853717;28;20179;-57
2023/05/24 11:10:42;;;;;;;21.35;5.30;;;;;;;8.69;70.86;100198.56;4851692;28;20053;-57
2023/05/24 11:13:21;;;;;;;13.23;5.32;;;;;;;8.56;70.91;100193.47;4851527;28;20066;-58
2023/05/24 11:15:52;;;;;;;15.73;3.97;;;;;;;8.45;71.30;100190.09;4845342;28;20047;-57
2023/05/24 11:18:24;;;;;;;14.43;3.60;;;;;;;8.14;71.67;100143.47;4863448;28;20049;-58
2023/05/24 11:20:56;;;;;;;15.23;4.78;;;;;;;8.21;71.95;100150.34;4845754;28;20069;-57
2023/05/24 11:23:41;;;;;;;14.70;3.72;;;;;;;8.43;72.35;100176.22;4858406;28;21265;-57
2023/05/24 11:26:22;;;;;;;7.43;3.58;;;;;;;8.28;72.25;100151.16;4838885;28;20076;-58
2023/05/24 11:28:56;;;;;;;12.18;3.83;;;;;;;8.42;72.69;100174.50;4839135;28;20054;-57
2023/05/24 11:31:28;;;;;;;10.95;5.05;;;;;;;8.37;72.65;100155.41;4850573;28;20520;-57
2023/05/24 11:34:00;;;;;;;15.32;5.47;;;;;;;8.32;72.83;100162.41;4842114;28;20050;-58
2023/05/24 11:36:31;;;;;;;12.68;4.47;;;;;;;8.32;73.14;100173.69;4850323;28;20046;-57
2023/05/24 11:39:06;;;;;;;19.27;5.20;;;;;;;8.05;73.53;100127.94;4857506;28;20061;-58
2023/05/24 11:41:43;;;;;;;13.25;6.20;;;;;;;8.15;73.63;100160.81;4849214;28;20062;-58
2023/05/24 11:44:28;;;;;;;14.23;5.90;;;;;;;8.24;74.22;100165.09;4837304;28;20058;-57
2023/05/24 11:47:16;;;;;;;19.50;6.68;;;;;;;8.25;74.32;100168.53;4840425;28;20060;-57
2023/05/24 11:49:53;;;;;;;16.23;5.05;;;;;;;8.19;74.13;100167.72;4838148;28;20054;-57
2023/05/24 11:52:25;;;;;;;11.45;4.82;;;;;;;8.18;74.38;100168.56;4858051;28;20054;-57
2023/05/24 11:54:59;;;;;;;21.40;4.88;;;;;;;8.09;74.72;100153.06;4864571;28;20060;-57
2023/05/24 11:57:42;;;;;;;15.85;6.40;;;;;;;8.02;74.63;100159.19;4863319;28;20371;-57
2023/05/24 12:00:16;;;;;;;16.13;5.55;;;;;;;8.06;75.09;100166.06;4854044;28;20041;-57
2023/05/24 12:02:52;;;;;;;12.40;5.32;;;;;;;8.05;75.43;100163.50;4847317;28;20068;-57
2023/05/24 12:05:30;;;;;;;12.45;5.50;;;;;;;8.07;75.39;100166.97;4857402;28;20049;-57
2023/05/24 12:08:08;;;;;;;21.50;5.65;;;;;;;8.05;75.41;100159.16;4855931;28;20064;-56
2023/05/24 12:10:47;;;;;;;13.98;5.78;;;;;;;7.97;75.77;100151.41;4840302;28;20068;-56
2023/05/24 12:14:08;;;;;;;13.55;5.22;;;;;;;7.97;75.97;100158.34;4852085;28;20056;-57
2023/05/24 12:16:45;;;;;;;20.08;5.82;;;;;;;7.80;76.05;100137.66;4839375;28;20180;-58
2023/05/24 12:19:24;;;;;;;17.98;5.85;;;;;;;7.85;76.34;100142.84;4842211;28;20065;-57